Time;durP1;ratioP1;P1;durP2;ratioP2;P2;SDS_P1;SDS_P2;PMS_P1;PMS_P2;Temp;Humidity;BMP_temperature;BMP_pressure;BME280_temperature;BME280_humidity;BME280_pressure;Samples;Min_cycle;Max_cycle;Signal;HPM_P1;HPM_P2
2022/11/14 00:01:43;;;;;;;;;;;;;;;;;;5072028;28;20357;-67
2022/11/14 00:04:08;;;;;;;;;;;;;;;;;;5072672;28;20270;-67
2022/11/14 00:06:33;;;;;;;;;;;;;;;;;;5071105;28;20272;-68
2022/11/14 00:08:58;;;;;;;;;;;;;;;;;;5067961;28;20372;-67
2022/11/14 00:11:23;;;;;;;;;;;;;;;;;;5071178;28;19916;-67
2022/11/14 00:13:48;;;;;;;;;;;;;;;;;;5069232;28;20032;-67
2022/11/14 00:16:14;;;;;;;;;;;;;;;;;;5063572;28;20300;-68
2022/11/14 00:18:39;;;;;;;;;;;;;;;;;;5101970;28;19977;-68
2022/11/14 00:21:04;;;;;;;;;;;;;;;;;;5071446;28;19912;-68
2022/11/14 00:23:29;;;;;;;;;;;;;;;;;;5070016;28;19924;-68
2022/11/14 00:25:54;;;;;;;;;;;;;;;;;;5064289;28;19913;-68
2022/11/14 00:28:19;;;;;;;;;;;;;;;;;;5068766;28;19913;-68
2022/11/14 00:30:44;;;;;;;;;;;;;;;;;;5068561;28;19912;-68
2022/11/14 00:33:10;;;;;;;;;;;;;;;;;;5070718;28;19917;-68
2022/11/14 00:35:35;;;;;;;;;;;;;;;;;;5077080;28;20407;-67
2022/11/14 00:38:00;;;;;;;;;;;;;;;;;;5071266;28;20365;-68
2022/11/14 00:40:25;;;;;;;;;;;;;;;;;;5069066;28;19923;-68
2022/11/14 00:42:50;;;;;;;;;;;;;;;;;;5073203;28;20054;-68
2022/11/14 00:45:15;;;;;;;;;;;;;;;;;;5069168;28;19915;-68
2022/11/14 00:47:40;;;;;;;;;;;;;;;;;;5063580;28;19912;-67
2022/11/14 00:50:06;;;;;;;;;;;;;;;;;;5070575;28;19916;-67
2022/11/14 00:52:31;;;;;;;;;;;;;;;;;;5070159;28;20010;-67
2022/11/14 00:54:56;;;;;;;;;;;;;;;;;;5069560;28;19919;-67
2022/11/14 00:57:21;;;;;;;;;;;;;;;;;;5066895;28;19920;-68
2022/11/14 00:59:46;;;;;;;;;;;;;;;;;;5070106;28;19912;-68
2022/11/14 01:02:11;;;;;;;;;;;;;;;;;;5070559;28;19966;-68
2022/11/14 01:04:36;;;;;;;;;;;;;;;;;;5069468;28;20382;-67
2022/11/14 01:07:01;;;;;;;;;;;;;;;;;;5069344;28;19995;-68
2022/11/14 01:09:26;;;;;;;;;;;;;;;;;;5067850;28;19917;-67
2022/11/14 01:11:52;;;;;;;;;;;;;;;;;;5070138;28;20544;-68
2022/11/14 01:14:17;;;;;;;;;;;;;;;;;;5071036;28;19925;-67
2022/11/14 01:16:42;;;;;;;;;;;;;;;;;;5067290;28;20424;-68
2022/11/14 01:19:07;;;;;;;;;;;;;;;;;;5092629;28;19929;-67
2022/11/14 01:21:32;;;;;;;;;;;;;;;;;;5069613;28;19917;-68
2022/11/14 01:23:57;;;;;;;;;;;;;;;;;;5069434;28;20292;-67
2022/11/14 01:26:22;;;;;;;;;;;;;;;;;;5062228;28;19919;-68
2022/11/14 01:28:47;;;;;;;;;;;;;;;;;;5068441;28;19912;-67
2022/11/14 01:31:13;;;;;;;;;;;;;;;;;;5069517;28;19957;-69
2022/11/14 01:33:38;;;;;;;;;;;;;;;;;;5073214;28;19923;-68
2022/11/14 01:36:03;;;;;;;;;;;;;;;;;;5075214;28;19912;-68
2022/11/14 01:38:28;;;;;;;;;;;;;;;;;;5074321;28;20356;-68
2022/11/14 01:40:53;;;;;;;;;;;;;;;;;;5079320;28;20369;-68
2022/11/14 01:43:18;;;;;;;;;;;;;;;;;;5068191;28;19944;-68
2022/11/14 01:45:43;;;;;;;;;;;;;;;;;;5075970;28;20464;-68
2022/11/14 01:48:09;;;;;;;;;;;;;;;;;;5074678;28;19966;-67
2022/11/14 01:50:34;;;;;;;;;;;;;;;;;;5076163;28;19917;-68
2022/11/14 01:52:59;;;;;;;;;;;;;;;;;;5076516;28;20385;-67
2022/11/14 01:55:26;;;;;;;;;;;;;;;;;;5073275;28;19917;-68
2022/11/14 01:57:51;;;;;;;;;;;;;;;;;;5071585;28;20376;-69
2022/11/14 02:00:16;;;;;;;;;;;;;;;;;;5077503;28;19923;-68
2022/11/14 02:02:41;;;;;;;;;;;;;;;;;;5076258;28;20011;-68
2022/11/14 02:05:06;;;;;;;;;;;;;;;;;;5074109;28;19924;-68
2022/11/14 02:07:31;;;;;;;;;;;;;;;;;;5076890;28;19920;-68
2022/11/14 02:09:57;;;;;;;;;;;;;;;;;;5073787;28;20003;-67
2022/11/14 02:12:22;;;;;;;;;;;;;;;;;;5074415;28;20018;-68
2022/11/14 02:14:47;;;;;;;;;;;;;;;;;;5075202;28;19920;-68
2022/11/14 02:17:12;;;;;;;;;;;;;;;;;;5078790;28;19912;-68
2022/11/14 02:19:37;;;;;;;;;;;;;;;;;;5074808;28;19917;-68
2022/11/14 02:22:02;;;;;;;;;;;;;;;;;;5075453;28;19960;-68
2022/11/14 02:24:27;;;;;;;;;;;;;;;;;;5067934;28;19921;-67
2022/11/14 02:26:53;;;;;;;;;;;;;;;;;;5073234;28;20256;-68
2022/11/14 02:29:18;;;;;;;;;;;;;;;;;;5074268;28;19913;-67
2022/11/14 02:31:43;;;;;;;;;;;;;;;;;;5074304;28;20023;-68
2022/11/14 02:34:08;;;;;;;;;;;;;;;;;;5075905;28;19923;-67
2022/11/14 02:36:33;;;;;;;;;;;;;;;;;;5075141;28;19917;-68
2022/11/14 02:38:58;;;;;;;;;;;;;;;;;;5078870;28;20000;-68
2022/11/14 02:41:23;;;;;;;;;;;;;;;;;;5077540;28;20502;-69
2022/11/14 02:43:48;;;;;;;;;;;;;;;;;;5081226;28;19920;-67
2022/11/14 02:46:14;;;;;;;;;;;;;;;;;;5080040;28;19923;-67
2022/11/14 02:48:39;;;;;;;;;;;;;;;;;;5071356;28;19913;-67
2022/11/14 02:51:04;;;;;;;;;;;;;;;;;;5072436;28;19912;-67
2022/11/14 02:53:29;;;;;;;;;;;;;;;;;;5066472;28;20323;-67
2022/11/14 02:55:54;;;;;;;;;;;;;;;;;;5071816;28;20361;-68
2022/11/14 02:58:19;;;;;;;;;;;;;;;;;;5070471;28;20384;-67
2022/11/14 03:00:44;;;;;;;;;;;;;;;;;;5069859;28;19913;-67
2022/11/14 03:03:10;;;;;;;;;;;;;;;;;;5072073;28;19919;-67
2022/11/14 03:05:35;;;;;;;;;;;;;;;;;;5072738;28;19913;-68
2022/11/14 03:08:00;;;;;;;;;;;;;;;;;;5069164;28;19954;-67
2022/11/14 03:10:25;;;;;;;;;;;;;;;;;;5067048;28;19919;-68
2022/11/14 03:12:50;;;;;;;;;;;;;;;;;;5076118;28;20254;-67
2022/11/14 03:15:15;;;;;;;;;;;;;;;;;;5072081;28;19917;-67
2022/11/14 03:17:41;;;;;;;;;;;;;;;;;;5072377;28;19909;-67
2022/11/14 03:20:06;;;;;;;;;;;;;;;;;;5072643;28;19935;-67
2022/11/14 03:22:31;;;;;;;;;;;;;;;;;;5065563;28;19916;-67
2022/11/14 03:24:56;;;;;;;;;;;;;;;;;;5065954;28;19927;-67
2022/11/14 03:27:21;;;;;;;;;;;;;;;;;;5082966;28;19912;-67
2022/11/14 03:29:46;;;;;;;;;;;;;;;;;;5073540;28;20375;-67
2022/11/14 03:32:11;;;;;;;;;;;;;;;;;;5070835;28;20373;-67
2022/11/14 03:34:37;;;;;;;;;;;;;;;;;;5079138;28;19920;-67
2022/11/14 03:37:02;;;;;;;;;;;;;;;;;;5071496;28;19912;-66
2022/11/14 03:39:27;;;;;;;;;;;;;;;;;;5068456;28;20369;-67
2022/11/14 03:41:52;;;;;;;;;;;;;;;;;;5070929;28;19991;-67
2022/11/14 03:44:17;;;;;;;;;;;;;;;;;;5076586;28;19920;-67
2022/11/14 03:46:42;;;;;;;;;;;;;;;;;;5077430;28;19912;-67
2022/11/14 03:49:07;;;;;;;;;;;;;;;;;;5069662;28;19912;-67
2022/11/14 03:51:32;;;;;;;;;;;;;;;;;;5079660;28;19916;-66
2022/11/14 03:53:58;;;;;;;;;;;;;;;;;;5094448;28;19912;-66
2022/11/14 03:56:23;;;;;;;;;;;;;;;;;;5078332;28;19912;-66
2022/11/14 03:58:48;;;;;;;;;;;;;;;;;;5070288;28;19924;-66
2022/11/14 04:01:13;;;;;;;;;;;;;;;;;;5078283;28;20391;-68
2022/11/14 04:03:38;;;;;;;;;;;;;;;;;;5070303;28;19924;-67
2022/11/14 04:06:03;;;;;;;;;;;;;;;;;;5061758;28;19916;-68
2022/11/14 04:08:28;;;;;;;;;;;;;;;;;;5076118;28;19916;-67
2022/11/14 04:10:54;;;;;;;;;;;;;;;;;;5068553;28;19913;-68
2022/11/14 04:13:19;;;;;;;;;;;;;;;;;;5071091;28;20030;-67
2022/11/14 04:15:45;;;;;;;;;;;;;;;;;;5065198;28;20308;-68
2022/11/14 04:18:10;;;;;;;;;;;;;;;;;;5069240;28;20428;-67
2022/11/14 04:20:35;;;;;;;;;;;;;;;;;;5070492;28;19919;-67
2022/11/14 04:23:00;;;;;;;;;;;;;;;;;;5070652;28;19924;-68
2022/11/14 04:25:25;;;;;;;;;;;;;;;;;;5070476;28;20323;-68
2022/11/14 04:27:50;;;;;;;;;;;;;;;;;;5068864;28;19916;-67
2022/11/14 04:30:15;;;;;;;;;;;;;;;;;;5069269;28;19912;-67
2022/11/14 04:32:40;;;;;;;;;;;;;;;;;;5071093;28;19916;-67
2022/11/14 04:35:06;;;;;;;;;;;;;;;;;;5073330;28;19916;-67
2022/11/14 04:37:31;;;;;;;;;;;;;;;;;;5069089;28;20378;-68
2022/11/14 04:39:59;;;;;;;;;;;;;;;;;;5071968;28;19912;-68
2022/11/14 04:42:24;;;;;;;;;;;;;;;;;;5068325;28;19916;-68
2022/11/14 04:44:50;;;;;;;;;;;;;;;;;;5069702;28;19936;-67
2022/11/14 04:47:15;;;;;;;;;;;;;;;;;;5055620;28;19920;-68
2022/11/14 04:49:40;;;;;;;;;;;;;;;;;;5077134;28;19931;-66
2022/11/14 04:52:05;;;;;;;;;;;;;;;;;;5069152;28;19909;-68
2022/11/14 04:54:30;;;;;;;;;;;;;;;;;;5068245;28;19923;-68
2022/11/14 04:56:55;;;;;;;;;;;;;;;;;;5069049;28;20462;-68
2022/11/14 04:59:20;;;;;;;;;;;;;;;;;;5067552;28;19913;-68
2022/11/14 05:01:46;;;;;;;;;;;;;;;;;;5069311;28;19920;-68
2022/11/14 05:04:11;;;;;;;;;;;;;;;;;;5069906;28;20010;-67
2022/11/14 05:06:36;;;;;;;;;;;;;;;;;;5067748;28;19912;-67
2022/11/14 05:09:01;;;;;;;;;;;;;;;;;;5072843;28;19917;-68
2022/11/14 05:11:26;;;;;;;;;;;;;;;;;;5069245;28;19921;-68
2022/11/14 05:13:51;;;;;;;;;;;;;;;;;;5070676;28;19916;-68
2022/11/14 05:16:16;;;;;;;;;;;;;;;;;;5070036;28;19919;-68
2022/11/14 05:18:41;;;;;;;;;;;;;;;;;;5065951;28;20296;-68
2022/11/14 05:21:07;;;;;;;;;;;;;;;;;;5058394;28;19948;-67
2022/11/14 05:23:32;;;;;;;;;;;;;;;;;;5067521;28;19920;-67
2022/11/14 05:25:57;;;;;;;;;;;;;;;;;;5073527;28;19981;-67
2022/11/14 05:28:22;;;;;;;;;;;;;;;;;;5067939;28;19966;-67
2022/11/14 05:30:47;;;;;;;;;;;;;;;;;;5069967;28;19913;-67
2022/11/14 05:33:12;;;;;;;;;;;;;;;;;;5067971;28;19920;-67
2022/11/14 05:35:37;;;;;;;;;;;;;;;;;;5069429;28;19920;-67
2022/11/14 05:38:02;;;;;;;;;;;;;;;;;;5069426;28;20011;-67
2022/11/14 05:40:28;;;;;;;;;;;;;;;;;;5068865;28;19919;-66
2022/11/14 05:42:53;;;;;;;;;;;;;;;;;;5069641;28;20392;-63
2022/11/14 05:45:18;;;;;;;;;;;;;;;;;;5069249;28;20001;-63
2022/11/14 05:47:43;;;;;;;;;;;;;;;;;;5066485;28;20377;-65
2022/11/14 05:50:08;;;;;;;;;;;;;;;;;;5060562;28;19921;-64
2022/11/14 05:52:33;;;;;;;;;;;;;;;;;;5066202;28;19939;-63
2022/11/14 05:54:59;;;;;;;;;;;;;;;;;;5062611;28;19913;-63
2022/11/14 05:57:24;;;;;;;;;;;;;;;;;;5064616;28;20003;-63
2022/11/14 05:59:49;;;;;;;;;;;;;;;;;;5065690;28;19927;-63
2022/11/14 06:02:14;;;;;;;;;;;;;;;;;;5065939;28;19912;-63
2022/11/14 06:04:39;;;;;;;;;;;;;;;;;;5069453;28;19912;-63
2022/11/14 06:07:04;;;;;;;;;;;;;;;;;;5067584;28;19913;-64
2022/11/14 06:09:29;;;;;;;;;;;;;;;;;;5067389;28;19912;-63
2022/11/14 06:11:55;;;;;;;;;;;;;;;;;;5064631;28;20613;-64
2022/11/14 06:14:20;;;;;;;;;;;;;;;;;;5068368;28;20384;-63
2022/11/14 06:16:45;;;;;;;;;;;;;;;;;;5066989;28;19912;-66
2022/11/14 06:19:10;;;;;;;;;;;;;;;;;;5066034;28;19916;-63
2022/11/14 06:21:35;;;;;;;;;;;;;;;;;;5068511;28;19913;-64
2022/11/14 06:24:00;;;;;;;;;;;;;;;;;;5070381;28;19921;-63
2022/11/14 06:26:26;;;;;;;;;;;;;;;;;;5075187;28;20265;-64
2022/11/14 06:28:51;;;;;;;;;;;;;;;;;;5071096;28;19983;-64
2022/11/14 06:31:16;;;;;;;;;;;;;;;;;;5073334;28;19935;-64
2022/11/14 06:33:41;;;;;;;;;;;;;;;;;;5084199;28;19920;-64
2022/11/14 06:36:06;;;;;;;;;;;;;;;;;;5071615;28;20007;-63
2022/11/14 06:38:31;;;;;;;;;;;;;;;;;;5056791;28;19982;-65
2022/11/14 06:40:57;;;;;;;;;;;;;;;;;;5068809;28;19924;-63
2022/11/14 06:43:22;;;;;;;;;;;;;;;;;;5069183;28;19951;-64
2022/11/14 06:45:47;;;;;;;;;;;;;;;;;;5069715;28;20313;-64
2022/11/14 06:48:12;;;;;;;;;;;;;;;;;;5074270;28;20372;-64
2022/11/14 06:50:37;;;;;;;;;;;;;;;;;;5073654;28;19999;-64
2022/11/14 06:53:02;;;;;;;;;;;;;;;;;;5075054;28;19916;-66
2022/11/14 06:55:27;;;;;;;;;;;;;;;;;;5074973;28;19943;-64
2022/11/14 06:57:53;;;;;;;;;;;;;;;;;;5073803;28;19920;-64
2022/11/14 07:00:18;;;;;;;;;;;;;;;;;;5079428;28;19924;-63
2022/11/14 07:02:43;;;;;;;;;;;;;;;;;;5074249;28;19916;-63
2022/11/14 07:05:08;;;;;;;;;;;;;;;;;;5087841;28;19916;-62
2022/11/14 07:07:34;;;;;;;;;;;;;;;;;;5074600;28;19904;-64
2022/11/14 07:09:59;;;;;;;;;;;;;;;;;;5091731;28;19919;-63
2022/11/14 07:12:24;;;;;;;;;;;;;;;;;;5081672;28;19951;-65
2022/11/14 07:14:49;;;;;;;;;;;;;;;;;;5071472;28;19916;-64
2022/11/14 07:17:14;;;;;;;;;;;;;;;;;;5069313;28;19971;-64
2022/11/14 07:19:39;;;;;;;;;;;;;;;;;;5072215;28;19953;-64
2022/11/14 07:22:04;;;;;;;;;;;;;;;;;;5077065;28;19919;-63
2022/11/14 07:24:31;;;;;;;;;;;;;;;;;;5073797;28;21325;-63
2022/11/14 07:26:57;;;;;;;;;;;;;;;;;;5089299;28;20020;-64
2022/11/14 07:29:22;;;;;;;;;;;;;;;;;;5073537;28;19912;-64
2022/11/14 07:31:47;;;;;;;;;;;;;;;;;;5073574;28;19912;-64
2022/11/14 07:34:12;;;;;;;;;;;;;;;;;;5073677;28;19962;-63
2022/11/14 07:36:37;;;;;;;;;;;;;;;;;;5073796;28;19909;-63
2022/11/14 07:39:03;;;;;;;;;;;;;;;;;;5073689;28;19912;-63
2022/11/14 07:41:28;;;;;;;;;;;;;;;;;;5074388;28;19909;-64
2022/11/14 07:43:53;;;;;;;;;;;;;;;;;;5071881;28;20272;-64
2022/11/14 07:46:18;;;;;;;;;;;;;;;;;;5074222;28;20352;-64
2022/11/14 07:48:43;;;;;;;;;;;;;;;;;;5079260;28;20007;-64
2022/11/14 07:51:08;;;;;;;;;;;;;;;;;;5093900;28;20315;-64
2022/11/14 07:53:33;;;;;;;;;;;;;;;;;;5073996;28;19927;-64
2022/11/14 07:55:58;;;;;;;;;;;;;;;;;;5076707;28;19912;-64
2022/11/14 07:58:24;;;;;;;;;;;;;;;;;;5077656;28;20395;-63
2022/11/14 08:00:49;;;;;;;;;;;;;;;;;;5072705;28;19913;-63
2022/11/14 08:03:14;;;;;;;;;;;;;;;;;;5072253;28;19921;-64
2022/11/14 08:05:39;;;;;;;;;;;;;;;;;;5073127;28;19919;-63
2022/11/14 08:08:04;;;;;;;;;;;;;;;;;;5073771;28;20012;-64
2022/11/14 08:10:29;;;;;;;;;;;;;;;;;;5073224;28;19915;-63
2022/11/14 08:12:54;;;;;;;;;;;;;;;;;;5073626;28;19912;-64
2022/11/14 08:15:19;;;;;;;;;;;;;;;;;;5072671;28;19918;-64
2022/11/14 08:17:45;;;;;;;;;;;;;;;;;;5073403;28;19943;-64
2022/11/14 08:20:10;;;;;;;;;;;;;;;;;;5073055;28;19909;-63
2022/11/14 08:22:35;;;;;;;;;;;;;;;;;;5072188;28;20380;-64
2022/11/14 08:25:00;;;;;;;;;;;;;;;;;;5073291;28;19916;-64
2022/11/14 08:27:25;;;;;;;;;;;;;;;;;;5071558;28;19951;-64
2022/11/14 08:29:50;;;;;;;;;;;;;;;;;;5072927;28;19924;-64
2022/11/14 08:32:15;;;;;;;;;;;;;;;;;;5071950;28;19909;-63
2022/11/14 08:34:41;;;;;;;;;;;;;;;;;;5073273;28;19912;-64
2022/11/14 08:37:06;;;;;;;;;;;;;;;;;;5072602;28;19999;-64
2022/11/14 08:39:31;;;;;;;;;;;;;;;;;;5072678;28;19909;-64
2022/11/14 08:41:56;;;;;;;;;;;;;;;;;;5073296;28;19916;-64
2022/11/14 08:44:21;;;;;;;;;;;;;;;;;;5070647;28;19916;-65
2022/11/14 08:46:46;;;;;;;;;;;;;;;;;;5072144;28;19935;-64
2022/11/14 08:49:11;;;;;;;;;;;;;;;;;;5072955;28;19963;-61
2022/11/14 08:51:37;;;;;;;;;;;;;;;;;;5072664;28;19916;-64
2022/11/14 08:54:02;;;;;;;;;;;;;;;;;;5071894;28;20325;-62
2022/11/14 08:56:27;;;;;;;;;;;;;;;;;;5072996;28;19952;-64
2022/11/14 08:58:52;;;;;;;;;;;;;;;;;;5085512;28;19913;-64
2022/11/14 09:01:17;;;;;;;;;;;;;;;;;;5072737;28;20365;-64
2022/11/14 09:03:42;;;;;;;;;;;;;;;;;;5071358;28;20327;-64
2022/11/14 09:06:07;;;;;;;;;;;;;;;;;;5066361;28;19913;-65
2022/11/14 09:08:33;;;;;;;;;;;;;;;;;;5069464;28;19908;-64
2022/11/14 09:10:58;;;;;;;;;;;;;;;;;;5071215;28;19913;-64
2022/11/14 09:13:23;;;;;;;;;;;;;;;;;;5072433;28;19917;-64
2022/11/14 09:15:48;;;;;;;;;;;;;;;;;;5075503;28;20022;-65
2022/11/14 09:18:14;;;;;;;;;;;;;;;;;;5086158;28;19934;-64
2022/11/14 09:20:39;;;;;;;;;;;;;;;;;;5072008;28;20410;-64
2022/11/14 09:23:04;;;;;;;;;;;;;;;;;;5072291;28;19917;-63
2022/11/14 09:25:29;;;;;;;;;;;;;;;;;;5070939;28;19913;-63
2022/11/14 09:27:55;;;;;;;;;;;;;;;;;;5063033;28;19936;-64
2022/11/14 09:30:21;;;;;;;;;;;;;;;;;;5074458;28;19909;-64
2022/11/14 09:32:46;;;;;;;;;;;;;;;;;;5064874;28;20356;-64
2022/11/14 09:35:11;;;;;;;;;;;;;;;;;;5068717;28;20015;-64
2022/11/14 09:37:36;;;;;;;;;;;;;;;;;;5062358;28;19919;-63
2022/11/14 09:40:02;;;;;;;;;;;;;;;;;;5069695;28;19916;-62
2022/11/14 09:42:27;;;;;;;;;;;;;;;;;;5072476;28;19909;-64
2022/11/14 09:44:52;;;;;;;;;;;;;;;;;;5065033;28;19940;-63
2022/11/14 09:47:20;;;;;;;;;;;;;;;;;;5068916;28;19913;-65
2022/11/14 09:49:45;;;;;;;;;;;;;;;;;;5071946;28;19912;-64
2022/11/14 09:52:10;;;;;;;;;;;;;;;;;;5061787;28;20054;-64
2022/11/14 09:54:35;;;;;;;;;;;;;;;;;;5072150;28;19958;-64
2022/11/14 09:57:00;;;;;;;;;;;;;;;;;;5067758;28;19917;-64
2022/11/14 09:59:25;;;;;;;;;;;;;;;;;;5064183;28;19931;-64
2022/11/14 10:01:51;;;;;;;;;;;;;;;;;;5070600;28;19909;-65
2022/11/14 10:04:16;;;;;;;;;;;;;;;;;;5055845;28;19963;-64
2022/11/14 10:06:41;;;;;;;;;;;;;;;;;;5070920;28;19938;-64
2022/11/14 10:09:06;;;;;;;;;;;;;;;;;;5073805;28;19913;-64
2022/11/14 10:11:32;;;;;;;;;;;;;;;;;;5073511;28;20275;-64
2022/11/14 10:13:58;;;;;;;;;;;;;;;;;;5075849;28;19959;-65
2022/11/14 10:16:23;;;;;;;;;;;;;;;;;;5096120;28;19912;-64
2022/11/14 10:18:48;;;;;;;;;;;;;;;;;;5074545;28;20777;-62
2022/11/14 10:21:14;;;;;;;;;;;;;;;;;;5075603;28;19965;-64
2022/11/14 10:23:39;;;;;;;;;;;;;;;;;;5075473;28;20023;-63
2022/11/14 10:26:04;;;;;;;;;;;;;;;;;;5060909;28;20288;-64
2022/11/14 10:28:29;;;;;;;;;;;;;;;;;;5064460;28;20353;-63
2022/11/14 10:30:54;;;;;;;;;;;;;;;;;;5075468;28;19919;-63
2022/11/14 10:33:19;;;;;;;;;;;;;;;;;;5075349;28;19945;-64
2022/11/14 10:35:45;;;;;;;;;;;;;;;;;;5074746;28;19991;-65
2022/11/14 10:38:10;;;;;;;;;;;;;;;;;;5072187;28;19909;-65
2022/11/14 10:40:35;;;;;;;;;;;;;;;;;;5073950;28;19919;-64
2022/11/14 10:43:00;;;;;;;;;;;;;;;;;;5061966;28;19924;-64
2022/11/14 10:45:25;;;;;;;;;;;;;;;;;;5099488;28;19908;-64
2022/11/14 10:47:50;;;;;;;;;;;;;;;;;;5075111;28;19919;-63
2022/11/14 10:50:16;;;;;;;;;;;;;;;;;;5087745;28;19908;-64
2022/11/14 10:52:41;;;;;;;;;;;;;;;;;;5075094;28;19922;-64
2022/11/14 10:55:06;;;;;;;;;;;;;;;;;;5068402;28;20003;-64
2022/11/14 10:57:31;;;;;;;;;;;;;;;;;;5056374;28;19912;-64
2022/11/14 10:59:56;;;;;;;;;;;;;;;;;;5067259;28;20015;-63
2022/11/14 11:02:22;;;;;;;;;;;;;;;;;;5064250;28;19912;-63
2022/11/14 11:04:47;;;;;;;;;;;;;;;;;;5061647;28;19908;-63
2022/11/14 11:11:28;;;;;;;;;;;;;;;;;;5060186;28;19916;-65
2022/11/14 11:12:44;;;;;;;;;;;;;;;;;;5088346;28;19973;-65
2022/11/14 11:15:09;;;;;;;;;;;;;;;;;;5077939;28;19908;-65
2022/11/14 11:17:35;;;;;;;;;;;;;;;;;;5073134;28;20371;-65
2022/11/14 11:20:00;;;;;;;;;;;;;;;;;;5074682;28;20381;-65
2022/11/14 11:22:25;;;;;;;;;;;;;;;;;;5072168;28;19974;-64
2022/11/14 11:24:50;;;;;;;;;;;;;;;;;;5073196;28;20202;-64
2022/11/14 11:27:15;;;;;;;;;;;;;;;;;;5059306;28;19939;-62
2022/11/14 11:29:40;;;;;;;;;;;;;;;;;;5074018;28;19966;-62
2022/11/14 11:32:05;;;;;;;;;;;;;;;;;;5072621;28;20383;-64
2022/11/14 11:34:31;;;;;;;;;;;;;;;;;;5074265;28;19927;-63
2022/11/14 11:36:56;;;;;;;;;;;;;;;;;;5072627;28;19908;-64
2022/11/14 11:39:21;;;;;;;;;;;;;;;;;;5073423;28;20022;-64
2022/11/14 11:41:46;;;;;;;;;;;;;;;;;;5074334;28;19909;-63
2022/11/14 11:44:11;;;;;;;;;;;;;;;;;;5070235;28;19921;-64
2022/11/14 11:46:36;;;;;;;;;;;;;;;;;;5074382;28;19909;-63
2022/11/14 11:49:01;;;;;;;;;;;;;;;;;;5074049;28;19919;-64
2022/11/14 11:51:27;;;;;;;;;;;;;;;;;;5073807;28;19908;-64
2022/11/14 11:53:52;;;;;;;;;;;;;;;;;;5073226;28;20292;-63
2022/11/14 11:56:17;;;;;;;;;;;;;;;;;;5074130;28;19908;-65
2022/11/14 11:58:43;;;;;;;;;;;;;;;;;;5072088;28;19912;-64
2022/11/14 12:01:08;;;;;;;;;;;;;;;;;;5074076;28;19954;-64
2022/11/14 12:03:33;;;;;;;;;;;;;;;;;;5072192;28;20376;-64
2022/11/14 12:05:58;;;;;;;;;;;;;;;;;;5071871;28;19913;-64
2022/11/14 12:08:23;;;;;;;;;;;;;;;;;;5073586;28;19962;-63
2022/11/14 12:10:48;;;;;;;;;;;;;;;;;;5073193;28;19940;-64
2022/11/14 12:13:13;;;;;;;;;;;;;;;;;;5073383;28;19924;-64
2022/11/14 12:15:39;;;;;;;;;;;;;;;;;;5072152;28;20429;-63
2022/11/14 12:18:04;;;;;;;;;;;;;;;;;;5073070;28;19916;-63
2022/11/14 12:20:29;;;;;;;;;;;;;;;;;;5071953;28;19912;-64
2022/11/14 12:22:54;;;;;;;;;;;;;;;;;;5067627;28;19917;-70
2022/11/14 12:25:19;;;;;;;;;;;;;;;;;;5065954;28;20121;-67
2022/11/14 12:27:44;;;;;;;;;;;;;;;;;;5067175;28;19920;-64
2022/11/14 12:30:09;;;;;;;;;;;;;;;;;;5070486;28;19908;-64
2022/11/14 12:32:34;;;;;;;;;;;;;;;;;;5072138;28;19912;-62
2022/11/14 12:35:00;;;;;;;;;;;;;;;;;;5069172;28;19912;-63
2022/11/14 12:37:25;;;;;;;;;;;;;;;;;;5072470;28;20361;-63
2022/11/14 12:39:50;;;;;;;;;;;;;;;;;;5071100;28;20434;-64
2022/11/14 12:42:15;;;;;;;;;;;;;;;;;;5072444;28;19908;-63
2022/11/14 12:44:40;;;;;;;;;;;;;;;;;;5070687;28;20023;-63
2022/11/14 12:47:06;;;;;;;;;;;;;;;;;;5072008;28;19913;-64
2022/11/14 12:49:31;;;;;;;;;;;;;;;;;;5072745;28;19908;-64
2022/11/14 12:51:56;;;;;;;;;;;;;;;;;;5072279;28;19999;-64
2022/11/14 12:54:21;;;;;;;;;;;;;;;;;;5071403;28;19922;-64
2022/11/14 12:56:46;;;;;;;;;;;;;;;;;;5070604;28;20319;-65
2022/11/14 12:59:11;;;;;;;;;;;;;;;;;;5070284;28;19936;-63
2022/11/14 13:01:36;;;;;;;;;;;;;;;;;;5068788;28;19908;-64
2022/11/14 13:04:02;;;;;;;;;;;;;;;;;;5054584;28;19909;-64
2022/11/14 13:06:27;;;;;;;;;;;;;;;;;;5072117;28;19960;-67
2022/11/14 13:08:52;;;;;;;;;;;;;;;;;;5060561;28;19908;-64
2022/11/14 13:21:44;;;;;;;;;;;;;;;;;;5069100;28;19935;-67
2022/11/14 13:22:14;;;;;;;;;;;;;;;;;;5066920;28;19996;-61
2022/11/14 13:24:39;;;;;;;;;;;;;;;;;;5071797;28;20384;-64
2022/11/14 13:27:04;;;;;;;;;;;;;;;;;;5069769;28;19978;-63
2022/11/14 13:29:29;;;;;;;;;;;;;;;;;;5075680;28;19957;-64
2022/11/14 13:31:54;;;;;;;;;;;;;;;;;;5071372;28;19908;-63
2022/11/14 13:34:20;;;;;;;;;;;;;;;;;;5071650;28;19958;-64
2022/11/14 13:36:45;;;;;;;;;;;;;;;;;;5071122;28;20330;-62
2022/11/14 13:39:10;;;;;;;;;;;;;;;;;;5069493;28;19915;-64
2022/11/14 13:41:35;;;;;;;;;;;;;;;;;;5070467;28;19909;-63
2022/11/14 13:44:00;;;;;;;;;;;;;;;;;;5071675;28;20285;-64
2022/11/14 13:46:25;;;;;;;;;;;;;;;;;;5071506;28;19922;-63
2022/11/14 13:48:50;;;;;;;;;;;;;;;;;;5071506;28;19916;-65
2022/11/14 13:51:15;;;;;;;;;;;;;;;;;;5070733;28;19912;-64
2022/11/14 13:53:41;;;;;;;;;;;;;;;;;;5071892;28;19962;-63
2022/11/14 13:56:06;;;;;;;;;;;;;;;;;;5069583;28;19970;-63
2022/11/14 13:58:31;;;;;;;;;;;;;;;;;;5068831;28;19913;-62
2022/11/14 14:00:56;;;;;;;;;;;;;;;;;;5073187;28;19908;-64
2022/11/14 14:03:21;;;;;;;;;;;;;;;;;;5066197;28;20468;-64
2022/11/14 14:05:47;;;;;;;;;;;;;;;;;;5069182;28;19913;-64
2022/11/14 14:08:12;;;;;;;;;;;;;;;;;;5065605;28;19916;-62
2022/11/14 14:10:37;;;;;;;;;;;;;;;;;;5070032;28;19920;-64
2022/11/14 14:13:02;;;;;;;;;;;;;;;;;;5066518;28;19993;-64
2022/11/14 14:15:27;;;;;;;;;;;;;;;;;;5069007;28;19912;-63
2022/11/14 14:17:52;;;;;;;;;;;;;;;;;;5071265;28;19916;-62
2022/11/14 14:20:18;;;;;;;;;;;;;;;;;;5070592;28;20354;-63
2022/11/14 14:22:43;;;;;;;;;;;;;;;;;;5067154;28;19963;-64
2022/11/14 14:25:08;;;;;;;;;;;;;;;;;;5073865;28;19916;-64
2022/11/14 14:27:33;;;;;;;;;;;;;;;;;;5066022;28;19955;-65
2022/11/14 14:29:58;;;;;;;;;;;;;;;;;;5073358;28;19912;-64
2022/11/14 14:32:24;;;;;;;;;;;;;;;;;;5069564;28;19923;-64
2022/11/14 14:34:49;;;;;;;;;;;;;;;;;;5068163;28;19924;-64
2022/11/14 14:37:14;;;;;;;;;;;;;;;;;;5065672;28;20272;-64
2022/11/14 14:39:39;;;;;;;;;;;;;;;;;;5061471;28;19921;-64
2022/11/14 14:42:04;;;;;;;;;;;;;;;;;;5068422;28;19963;-64
2022/11/14 14:44:30;;;;;;;;;;;;;;;;;;5068527;28;19920;-64
2022/11/14 14:46:56;;;;;;;;;;;;;;;;;;5069404;28;20360;-64
2022/11/14 14:49:21;;;;;;;;;;;;;;;;;;5073394;28;19923;-63
2022/11/14 14:51:46;;;;;;;;;;;;;;;;;;5063433;28;19939;-64
2022/11/14 14:54:11;;;;;;;;;;;;;;;;;;5073376;28;19970;-64
2022/11/14 14:56:36;;;;;;;;;;;;;;;;;;5065088;28;20342;-64
2022/11/14 14:59:01;;;;;;;;;;;;;;;;;;5068568;28;19920;-64
2022/11/14 15:01:27;;;;;;;;;;;;;;;;;;5068766;28;19921;-64
2022/11/14 15:03:53;;;;;;;;;;;;;;;;;;5073535;28;19912;-64
2022/11/14 15:06:18;;;;;;;;;;;;;;;;;;5079234;28;19912;-64
2022/11/14 15:08:43;;;;;;;;;;;;;;;;;;5071691;28;20002;-63
2022/11/14 15:11:08;;;;;;;;;;;;;;;;;;5069233;28;20299;-64
2022/11/14 15:13:33;;;;;;;;;;;;;;;;;;5071743;28;19974;-63
2022/11/14 15:15:58;;;;;;;;;;;;;;;;;;5072248;28;19920;-63
2022/11/14 15:18:23;;;;;;;;;;;;;;;;;;5074551;28;19909;-63
2022/11/14 15:20:49;;;;;;;;;;;;;;;;;;5073053;28;19916;-65
2022/11/14 15:23:14;;;;;;;;;;;;;;;;;;5069275;28;19928;-64
2022/11/14 15:25:39;;;;;;;;;;;;;;;;;;5070160;28;20318;-64
2022/11/14 15:28:04;;;;;;;;;;;;;;;;;;5069333;28;20462;-62
2022/11/14 15:30:35;;;;;;;;;;;;;;;;;;5074230;28;20284;-63
2022/11/14 15:33:00;;;;;;;;;;;;;;;;;;5071904;28;19916;-63
2022/11/14 15:35:25;;;;;;;;;;;;;;;;;;5071761;28;20386;-63
2022/11/14 15:37:51;;;;;;;;;;;;;;;;;;5069912;28;20387;-63
2022/11/14 15:40:16;;;;;;;;;;;;;;;;;;5068062;28;19919;-63
2022/11/14 15:42:41;;;;;;;;;;;;;;;;;;5073649;28;19908;-63
2022/11/14 15:45:06;;;;;;;;;;;;;;;;;;5075819;28;19916;-62
2022/11/14 15:47:31;;;;;;;;;;;;;;;;;;5073328;28;19909;-63
2022/11/14 15:49:57;;;;;;;;;;;;;;;;;;5073540;28;19952;-64
2022/11/14 15:52:22;;;;;;;;;;;;;;;;;;5073276;28;19908;-65
2022/11/14 15:54:47;;;;;;;;;;;;;;;;;;5071562;28;20360;-64
2022/11/14 15:57:12;;;;;;;;;;;;;;;;;;5065090;28;19912;-63
2022/11/14 15:59:37;;;;;;;;;;;;;;;;;;5068933;28;19919;-63
2022/11/14 16:02:03;;;;;;;;;;;;;;;;;;5068201;28;19959;-63
2022/11/14 16:04:28;;;;;;;;;;;;;;;;;;5068634;28;19920;-66
2022/11/14 16:06:53;;;;;;;;;;;;;;;;;;5069054;28;19965;-63
2022/11/14 16:09:18;;;;;;;;;;;;;;;;;;5068124;28;19955;-65
2022/11/14 16:11:44;;;;;;;;;;;;;;;;;;5070670;28;19928;-65
2022/11/14 16:14:09;;;;;;;;;;;;;;;;;;5069258;28;19917;-64
2022/11/14 16:16:34;;;;;;;;;;;;;;;;;;5067706;28;19920;-63
2022/11/14 16:18:59;;;;;;;;;;;;;;;;;;5070416;28;20080;-65
2022/11/14 16:21:24;;;;;;;;;;;;;;;;;;5066225;28;19927;-65
2022/11/14 16:23:49;;;;;;;;;;;;;;;;;;5070008;28;19927;-64
2022/11/14 16:26:14;;;;;;;;;;;;;;;;;;5068933;28;19978;-64
2022/11/14 16:28:40;;;;;;;;;;;;;;;;;;5066849;28;19912;-63
2022/11/14 16:31:05;;;;;;;;;;;;;;;;;;5069449;28;19917;-63
2022/11/14 16:33:30;;;;;;;;;;;;;;;;;;5068771;28;20457;-64
2022/11/14 16:35:55;;;;;;;;;;;;;;;;;;5069511;28;20372;-63
2022/11/14 16:38:20;;;;;;;;;;;;;;;;;;5069061;28;19979;-63
2022/11/14 16:40:45;;;;;;;;;;;;;;;;;;5068117;28;19918;-63
2022/11/14 16:43:10;;;;;;;;;;;;;;;;;;5070265;28;20023;-64